createdAt,value
2023-03-17T00:01:43.981Z,4.10
2023-03-17T00:06:46.972Z,4.10
2023-03-17T00:11:51.745Z,4.20
2023-03-17T00:16:54.400Z,4.20
2023-03-17T00:21:57.432Z,3.97
2023-03-17T00:27:01.182Z,4.20
2023-03-17T00:32:04.079Z,4.10
2023-03-17T00:37:06.214Z,3.90
2023-03-17T00:42:10.125Z,3.85
2023-03-17T00:47:12.425Z,4.20
2023-03-17T00:52:14.604Z,4.30
2023-03-17T00:57:18.213Z,4.25
2023-03-17T01:02:20.424Z,4.70
2023-03-17T01:07:22.663Z,4.70
2023-03-17T01:12:26.317Z,4.95
2023-03-17T01:17:28.463Z,4.90
2023-03-17T01:22:30.621Z,4.45
2023-03-17T01:27:36.332Z,3.90
2023-03-17T01:32:38.482Z,4.43
2023-03-17T01:37:40.869Z,4.47
2023-03-17T01:42:48.045Z,4.28
2023-03-17T01:47:50.203Z,4.88
2023-03-17T01:52:52.628Z,4.15
2023-03-17T01:57:56.364Z,4.40
2023-03-17T02:02:58.491Z,4.47
2023-03-17T02:08:00.596Z,4.30
2023-03-17T02:13:05.155Z,3.97
2023-03-17T02:18:08.388Z,4.75
2023-03-17T02:23:12.883Z,4.18
2023-03-17T02:28:18.821Z,4.10
2023-03-17T02:33:20.993Z,4.57
2023-03-17T02:38:24.600Z,4.70
2023-03-17T02:43:26.881Z,4.18
2023-03-17T02:48:29.150Z,4.45
2023-03-17T02:53:32.709Z,3.97
2023-03-17T02:58:34.843Z,4.25
2023-03-17T03:03:37.116Z,3.85
2023-03-17T03:08:40.690Z,4.10
2023-03-17T03:13:42.908Z,3.95
2023-03-17T03:18:45.064Z,3.80
2023-03-17T03:23:48.670Z,4.18
2023-03-17T03:28:50.960Z,3.65
2023-03-17T03:33:53.460Z,4.75
2023-03-17T03:38:57.092Z,4.15
2023-03-17T03:43:59.377Z,3.80
2023-03-17T03:49:01.535Z,3.40
2023-03-17T03:54:05.112Z,3.60
2023-03-17T03:59:07.649Z,3.67
2023-03-17T04:04:09.797Z,3.90
2023-03-17T04:09:13.424Z,3.63
2023-03-17T04:14:16.690Z,3.60
2023-03-17T04:19:18.773Z,3.35
2023-03-17T04:24:22.250Z,3.67
2023-03-17T04:29:24.397Z,3.50
2023-03-17T04:34:26.639Z,3.67
2023-03-17T04:39:30.160Z,3.85
2023-03-17T04:44:32.768Z,3.38
2023-03-17T04:49:34.976Z,4.00
2023-03-17T04:54:38.609Z,3.65
2023-03-17T04:59:40.763Z,3.80
2023-03-17T05:04:43.251Z,2.95
2023-03-17T05:09:46.758Z,3.47
2023-03-17T05:14:48.931Z,3.20
2023-03-17T05:19:51.154Z,3.35
2023-03-17T05:24:54.731Z,3.40
2023-03-17T05:29:56.937Z,3.67
2023-03-17T05:34:59.140Z,4.78
2023-03-17T05:40:02.693Z,3.47
2023-03-17T05:45:05.506Z,5.25
2023-03-17T05:50:08.487Z,4.95
2023-03-17T05:55:12.280Z,3.95
2023-03-17T06:00:15.601Z,5.10
2023-03-17T06:05:18.086Z,6.00
2023-03-17T06:10:21.845Z,5.03
2023-03-17T06:15:25.788Z,4.10
2023-03-17T06:20:27.998Z,4.18
2023-03-17T06:25:31.741Z,3.60
2023-03-17T06:30:35.499Z,4.35
2023-03-17T06:35:37.795Z,3.40
2023-03-17T06:40:41.510Z,3.55
2023-03-17T06:45:43.639Z,5.68
2023-03-17T06:50:46.194Z,4.40
2023-03-17T06:55:49.749Z,3.70
2023-03-17T07:00:51.997Z,3.53
2023-03-17T07:05:54.259Z,3.30
2023-03-17T07:10:57.785Z,3.65
2023-03-17T07:16:00.660Z,3.40
2023-03-17T07:21:03.559Z,2.97
2023-03-17T07:26:07.444Z,3.60
2023-03-17T07:31:09.775Z,2.85
2023-03-17T07:36:11.994Z,3.28
2023-03-17T07:41:15.569Z,3.35
2023-03-17T07:46:17.887Z,3.20
2023-03-17T07:51:22.217Z,3.15
2023-03-17T07:56:25.757Z,3.08
2023-03-17T08:01:29.187Z,2.78
2023-03-17T08:06:31.360Z,2.90
2023-03-17T08:11:35.234Z,2.60
2023-03-17T08:16:37.539Z,2.55
2023-03-17T08:21:39.829Z,2.63
2023-03-17T08:26:43.417Z,2.47
2023-03-17T08:31:46.748Z,2.30
2023-03-17T08:36:49.125Z,2.40
2023-03-17T08:41:53.176Z,1.95
2023-03-17T08:46:55.456Z,2.33
2023-03-17T08:51:57.728Z,2.05
2023-03-17T08:57:01.385Z,2.15
2023-03-17T09:02:03.783Z,2.40
2023-03-17T09:07:07.745Z,2.42
2023-03-17T09:12:13.306Z,2.60
2023-03-17T09:17:16.083Z,2.50
2023-03-17T09:22:18.742Z,2.40
2023-03-17T09:27:22.400Z,2.10
2023-03-17T09:32:24.688Z,2.00
2023-03-17T09:37:26.863Z,2.10
2023-03-17T09:42:47.283Z,2.00
2023-03-17T09:48:03.677Z,2.10
2023-03-17T09:53:12.715Z,2.00
2023-03-17T09:58:16.906Z,2.40
2023-03-17T10:03:19.664Z,2.10
2023-03-17T10:08:31.604Z,1.83
2023-03-17T10:13:51.594Z,1.95
2023-03-17T10:18:56.688Z,2.00
2023-03-17T10:23:59.048Z,1.75
2023-03-17T10:29:03.393Z,2.28
2023-03-17T10:34:14.213Z,1.75
2023-03-17T10:39:20.596Z,2.13
2023-03-17T10:44:44.075Z,2.15
2023-03-17T10:49:47.110Z,2.13
2023-03-17T10:54:50.345Z,2.40
2023-03-17T10:59:56.655Z,2.50
2023-03-17T11:05:07.184Z,2.13
2023-03-17T11:10:23.320Z,2.50
2023-03-17T11:15:32.141Z,2.55
2023-03-17T11:20:54.963Z,2.30
2023-03-17T11:26:08.455Z,2.08
2023-03-17T11:31:22.825Z,2.47
2023-03-17T11:36:38.940Z,2.58
2023-03-17T11:41:59.530Z,2.47
2023-03-17T11:47:12.553Z,2.60
2023-03-17T11:52:22.449Z,2.58
2023-03-17T11:57:29.861Z,2.60
2023-03-17T12:02:40.882Z,3.03
2023-03-17T12:07:47.760Z,2.75
2023-03-17T12:12:55.495Z,2.45
2023-03-17T12:18:05.297Z,2.50
2023-03-17T12:23:14.440Z,2.70
2023-03-17T12:28:21.482Z,2.85
2023-03-17T12:33:31.127Z,2.78
2023-03-17T12:38:38.391Z,2.65
2023-03-17T12:43:53.012Z,3.13
2023-03-17T12:49:14.331Z,3.20
2023-03-17T12:54:22.033Z,3.08
2023-03-17T12:59:26.216Z,3.08
2023-03-17T13:04:32.476Z,3.08
2023-03-17T13:09:47.998Z,2.63
2023-03-17T13:14:52.738Z,3.00
2023-03-17T13:20:12.709Z,2.85
2023-03-17T13:25:30.941Z,2.78
2023-03-17T13:30:55.492Z,2.42
2023-03-17T13:36:28.706Z,3.03
2023-03-17T13:41:52.751Z,3.03
2023-03-17T13:46:55.476Z,3.10
2023-03-17T13:52:04.743Z,4.00
2023-03-17T13:57:25.883Z,3.30
2023-03-17T14:02:33.354Z,3.20
2023-03-17T14:07:48.541Z,3.00
2023-03-17T14:12:56.821Z,3.13
2023-03-17T14:18:04.561Z,3.28
2023-03-17T14:23:09.909Z,3.08
2023-03-17T14:28:16.902Z,3.17
2023-03-17T14:33:25.501Z,3.40
2023-03-17T14:38:30.861Z,3.53
2023-03-17T14:43:35.031Z,3.05
2023-03-17T14:48:40.944Z,3.10
2023-03-17T14:53:44.937Z,3.00
2023-03-17T14:58:52.376Z,3.58
2023-03-17T15:03:56.604Z,3.50
2023-03-17T15:09:02.636Z,3.63
2023-03-17T15:14:16.255Z,3.53
2023-03-17T15:19:22.927Z,3.78
2023-03-17T15:24:44.321Z,3.88
2023-03-17T15:29:47.030Z,3.50
2023-03-17T15:34:51.147Z,3.25
2023-03-17T15:39:55.697Z,3.65
2023-03-17T15:44:58.221Z,3.53
2023-03-17T15:50:11.277Z,4.25
2023-03-17T15:55:21.588Z,3.47
2023-03-17T16:00:27.465Z,6.65
2023-03-17T16:05:32.445Z,3.92
2023-03-17T16:10:36.166Z,3.67
2023-03-17T16:15:41.484Z,3.65
2023-03-17T16:20:46.013Z,3.95
2023-03-17T16:25:50.301Z,4.00
2023-03-17T16:30:54.545Z,5.32
2023-03-17T16:35:56.990Z,4.85
2023-03-17T16:41:06.821Z,4.47
2023-03-17T16:46:11.840Z,3.78
2023-03-17T16:51:14.058Z,4.40
2023-03-17T16:56:20.804Z,3.85
2023-03-17T17:01:25.765Z,4.90
2023-03-17T17:06:28.008Z,5.30
2023-03-17T17:11:31.673Z,5.22
2023-03-17T17:16:36.192Z,4.75
2023-03-17T17:21:38.324Z,4.40
2023-03-17T17:26:41.960Z,4.40
2023-03-17T17:31:44.203Z,4.72
2023-03-17T17:36:46.352Z,7.10
2023-03-17T17:41:49.898Z,6.72
2023-03-17T17:46:52.018Z,8.50
2023-03-17T17:51:54.277Z,6.85
2023-03-17T17:56:57.951Z,7.70
2023-03-17T18:02:02.464Z,8.82
2023-03-17T18:07:06.613Z,8.50
2023-03-17T18:12:13.118Z,7.40
2023-03-17T18:17:15.573Z,5.78
2023-03-17T18:22:17.667Z,5.10
2023-03-17T18:27:21.382Z,5.88
2023-03-17T18:32:24.211Z,5.65
2023-03-17T18:37:26.504Z,7.75
2023-03-17T18:42:30.104Z,8.25
2023-03-17T18:47:35.165Z,7.32
2023-03-17T18:52:44.376Z,8.50
2023-03-17T18:57:48.158Z,7.10
2023-03-17T19:02:50.296Z,7.60
2023-03-17T19:07:52.788Z,8.18
2023-03-17T19:12:56.363Z,8.98
2023-03-17T19:17:58.532Z,7.00
2023-03-17T19:23:00.968Z,11.60
2023-03-17T19:28:04.691Z,7.60
2023-03-17T19:33:06.886Z,7.40
2023-03-17T19:38:09.070Z,7.07
2023-03-17T19:43:13.235Z,7.60
2023-03-17T19:48:15.545Z,7.95
2023-03-17T19:53:17.791Z,7.07
2023-03-17T19:58:21.312Z,10.55
2023-03-17T20:03:26.323Z,7.63
2023-03-17T20:08:29.616Z,6.70
2023-03-17T20:13:35.459Z,7.95
2023-03-17T20:18:37.923Z,6.55
2023-03-17T20:23:40.091Z,7.20
2023-03-17T20:28:43.612Z,7.00
2023-03-17T20:33:45.844Z,7.72
2023-03-17T20:38:48.054Z,7.63
2023-03-17T20:43:51.657Z,8.25
2023-03-17T20:48:53.753Z,8.30
2023-03-17T20:53:55.902Z,7.82
2023-03-17T20:59:00.098Z,10.18
2023-03-17T21:04:02.534Z,9.50
2023-03-17T21:09:05.161Z,8.63
2023-03-17T21:14:08.738Z,8.93
2023-03-17T21:19:13.399Z,9.52
2023-03-17T21:24:25.051Z,9.27
2023-03-17T21:29:30.065Z,7.68
2023-03-17T21:34:32.806Z,7.07
2023-03-17T21:39:35.067Z,6.47
2023-03-17T21:44:39.109Z,6.50
2023-03-17T21:49:41.288Z,7.05
2023-03-17T21:54:43.430Z,5.70
2023-03-17T21:59:47.211Z,7.05
2023-03-17T22:04:49.784Z,5.85
2023-03-17T22:09:53.438Z,7.07
2023-03-17T22:14:58.020Z,7.13
2023-03-17T22:20:00.161Z,6.95
2023-03-17T22:25:03.010Z,6.97
2023-03-17T22:30:07.547Z,7.78
2023-03-17T22:35:09.824Z,6.47
2023-03-17T22:40:12.373Z,6.25
2023-03-17T22:45:15.979Z,6.68
2023-03-17T22:50:18.432Z,6.68
2023-03-17T22:55:20.540Z,6.13
2023-03-17T23:00:24.231Z,6.63
2023-03-17T23:05:26.445Z,6.60
2023-03-17T23:10:28.622Z,8.23
2023-03-17T23:15:32.300Z,7.65
2023-03-17T23:20:34.678Z,7.55
2023-03-17T23:25:37.518Z,7.22
2023-03-17T23:30:41.177Z,7.55
2023-03-17T23:35:43.476Z,6.68
2023-03-17T23:40:45.911Z,6.20
2023-03-17T23:45:51.351Z,6.65
2023-03-17T23:50:54.209Z,6.18
2023-03-17T23:55:56.244Z,6.03
